sensor_id;sensor_type;location;lat;lon;timestamp;P1;durP1;ratioP1;P2;durP2;ratioP2
22282;SDS011;11310;51.528;21.204;2023-01-04T00:00:00;16.08;;;8.15;;
22282;SDS011;11310;51.528;21.204;2023-01-04T00:02:30;14.05;;;7.45;;
22282;SDS011;11310;51.528;21.204;2023-01-04T00:04:59;14.95;;;8.02;;
22282;SDS011;11310;51.528;21.204;2023-01-04T00:07:28;21.02;;;8.52;;
22282;SDS011;11310;51.528;21.204;2023-01-04T00:09:58;18.10;;;8.25;;
22282;SDS011;11310;51.528;21.204;2023-01-04T00:12:27;18.92;;;8.38;;
22282;SDS011;11310;51.528;21.204;2023-01-04T00:14:55;17.35;;;8.15;;
22282;SDS011;11310;51.528;21.204;2023-01-04T00:17:23;16.27;;;7.78;;
22282;SDS011;11310;51.528;21.204;2023-01-04T00:19:52;17.80;;;8.77;;
22282;SDS011;11310;51.528;21.204;2023-01-04T00:22:21;20.13;;;8.60;;
22282;SDS011;11310;51.528;21.204;2023-01-04T00:24:49;20.33;;;8.63;;
22282;SDS011;11310;51.528;21.204;2023-01-04T00:27:19;18.27;;;8.25;;
22282;SDS011;11310;51.528;21.204;2023-01-04T00:29:48;20.45;;;8.50;;
22282;SDS011;11310;51.528;21.204;2023-01-04T00:32:16;19.80;;;8.15;;
22282;SDS011;11310;51.528;21.204;2023-01-04T00:34:45;21.95;;;8.95;;
22282;SDS011;11310;51.528;21.204;2023-01-04T00:37:14;21.40;;;9.18;;
22282;SDS011;11310;51.528;21.204;2023-01-04T00:39:42;17.13;;;8.40;;
22282;SDS011;11310;51.528;21.204;2023-01-04T00:42:11;19.70;;;7.97;;
22282;SDS011;11310;51.528;21.204;2023-01-04T00:44:41;22.02;;;8.20;;
22282;SDS011;11310;51.528;21.204;2023-01-04T00:47:10;19.17;;;8.98;;
22282;SDS011;11310;51.528;21.204;2023-01-04T00:49:39;19.30;;;8.00;;
22282;SDS011;11310;51.528;21.204;2023-01-04T00:52:07;20.95;;;8.77;;
22282;SDS011;11310;51.528;21.204;2023-01-04T00:54:37;19.27;;;9.07;;
22282;SDS011;11310;51.528;21.204;2023-01-04T00:57:06;14.10;;;8.25;;
22282;SDS011;11310;51.528;21.204;2023-01-04T00:59:35;19.52;;;8.48;;
22282;SDS011;11310;51.528;21.204;2023-01-04T01:02:05;19.40;;;9.43;;
22282;SDS011;11310;51.528;21.204;2023-01-04T01:04:34;22.27;;;8.98;;
22282;SDS011;11310;51.528;21.204;2023-01-04T01:07:03;18.48;;;8.57;;
22282;SDS011;11310;51.528;21.204;2023-01-04T01:09:32;19.20;;;9.20;;
22282;SDS011;11310;51.528;21.204;2023-01-04T01:12:01;17.88;;;9.23;;
22282;SDS011;11310;51.528;21.204;2023-01-04T01:14:29;18.80;;;8.95;;
22282;SDS011;11310;51.528;21.204;2023-01-04T01:16:58;19.08;;;8.48;;
22282;SDS011;11310;51.528;21.204;2023-01-04T01:19:28;22.17;;;9.68;;
22282;SDS011;11310;51.528;21.204;2023-01-04T01:21:57;21.10;;;9.43;;
22282;SDS011;11310;51.528;21.204;2023-01-04T01:24:26;22.35;;;8.85;;
22282;SDS011;11310;51.528;21.204;2023-01-04T01:26:55;22.65;;;9.32;;
22282;SDS011;11310;51.528;21.204;2023-01-04T01:29:24;24.13;;;9.57;;
22282;SDS011;11310;51.528;21.204;2023-01-04T01:31:53;17.75;;;8.57;;
22282;SDS011;11310;51.528;21.204;2023-01-04T01:34:21;18.08;;;8.80;;
22282;SDS011;11310;51.528;21.204;2023-01-04T01:36:51;17.88;;;8.35;;
22282;SDS011;11310;51.528;21.204;2023-01-04T01:39:20;18.67;;;8.50;;
22282;SDS011;11310;51.528;21.204;2023-01-04T01:41:48;20.05;;;8.75;;
22282;SDS011;11310;51.528;21.204;2023-01-04T01:47:24;18.55;;;9.52;;
22282;SDS011;11310;51.528;21.204;2023-01-04T01:49:56;18.00;;;8.43;;
22282;SDS011;11310;51.528;21.204;2023-01-04T01:52:27;19.02;;;8.95;;
22282;SDS011;11310;51.528;21.204;2023-01-04T01:55:01;20.65;;;8.52;;
22282;SDS011;11310;51.528;21.204;2023-01-04T02:00:03;22.83;;;9.27;;
22282;SDS011;11310;51.528;21.204;2023-01-04T02:02:41;19.27;;;9.15;;
22282;SDS011;11310;51.528;21.204;2023-01-04T02:05:17;19.65;;;7.90;;
22282;SDS011;11310;51.528;21.204;2023-01-04T02:07:48;19.92;;;8.57;;
22282;SDS011;11310;51.528;21.204;2023-01-04T02:10:18;23.57;;;8.80;;
22282;SDS011;11310;51.528;21.204;2023-01-04T02:12:47;22.33;;;9.18;;
22282;SDS011;11310;51.528;21.204;2023-01-04T02:15:19;23.20;;;9.02;;
22282;SDS011;11310;51.528;21.204;2023-01-04T02:17:54;18.52;;;8.80;;
22282;SDS011;11310;51.528;21.204;2023-01-04T02:20:32;20.95;;;10.05;;
22282;SDS011;11310;51.528;21.204;2023-01-04T02:23:18;20.27;;;8.68;;
22282;SDS011;11310;51.528;21.204;2023-01-04T02:29:44;20.90;;;8.80;;
22282;SDS011;11310;51.528;21.204;2023-01-04T02:32:36;22.73;;;9.32;;
22282;SDS011;11310;51.528;21.204;2023-01-04T02:35:16;21.55;;;9.15;;
22282;SDS011;11310;51.528;21.204;2023-01-04T02:37:53;16.63;;;8.85;;
22282;SDS011;11310;51.528;21.204;2023-01-04T02:40:32;17.70;;;9.05;;
22282;SDS011;11310;51.528;21.204;2023-01-04T02:43:11;18.67;;;9.52;;
22282;SDS011;11310;51.528;21.204;2023-01-04T02:46:03;21.15;;;8.32;;
22282;SDS011;11310;51.528;21.204;2023-01-04T02:48:38;21.63;;;9.60;;
22282;SDS011;11310;51.528;21.204;2023-01-04T02:51:26;22.33;;;9.82;;
22282;SDS011;11310;51.528;21.204;2023-01-04T02:53:57;22.52;;;9.50;;
22282;SDS011;11310;51.528;21.204;2023-01-04T02:56:35;19.15;;;9.32;;
22282;SDS011;11310;51.528;21.204;2023-01-04T02:59:16;18.60;;;8.65;;
22282;SDS011;11310;51.528;21.204;2023-01-04T03:02:02;22.13;;;9.13;;
22282;SDS011;11310;51.528;21.204;2023-01-04T03:05:04;18.77;;;8.38;;
22282;SDS011;11310;51.528;21.204;2023-01-04T03:08:00;18.20;;;8.57;;
22282;SDS011;11310;51.528;21.204;2023-01-04T03:10:40;20.20;;;8.65;;
22282;SDS011;11310;51.528;21.204;2023-01-04T03:13:14;20.52;;;8.82;;
22282;SDS011;11310;51.528;21.204;2023-01-04T03:15:49;21.95;;;9.27;;
22282;SDS011;11310;51.528;21.204;2023-01-04T03:18:22;19.88;;;9.32;;
22282;SDS011;11310;51.528;21.204;2023-01-04T03:20:56;20.67;;;9.65;;
22282;SDS011;11310;51.528;21.204;2023-01-04T03:23:28;18.80;;;8.90;;
22282;SDS011;11310;51.528;21.204;2023-01-04T03:26:19;18.85;;;9.30;;
22282;SDS011;11310;51.528;21.204;2023-01-04T03:29:12;19.67;;;9.20;;
22282;SDS011;11310;51.528;21.204;2023-01-04T03:32:03;20.48;;;8.55;;
22282;SDS011;11310;51.528;21.204;2023-01-04T03:34:53;21.13;;;9.10;;
22282;SDS011;11310;51.528;21.204;2023-01-04T03:37:43;21.08;;;9.07;;
22282;SDS011;11310;51.528;21.204;2023-01-04T03:40:18;21.05;;;9.70;;
22282;SDS011;11310;51.528;21.204;2023-01-04T03:43:10;17.13;;;8.68;;
22282;SDS011;11310;51.528;21.204;2023-01-04T03:46:01;17.17;;;9.27;;
22282;SDS011;11310;51.528;21.204;2023-01-04T03:48:51;20.88;;;8.95;;
22282;SDS011;11310;51.528;21.204;2023-01-04T03:51:25;18.05;;;8.35;;
22282;SDS011;11310;51.528;21.204;2023-01-04T03:56:30;20.52;;;7.80;;
22282;SDS011;11310;51.528;21.204;2023-01-04T03:59:00;18.10;;;9.25;;
22282;SDS011;11310;51.528;21.204;2023-01-04T04:01:29;19.92;;;8.57;;
22282;SDS011;11310;51.528;21.204;2023-01-04T04:03:59;21.48;;;9.70;;
22282;SDS011;11310;51.528;21.204;2023-01-04T04:06:45;17.00;;;8.27;;
22282;SDS011;11310;51.528;21.204;2023-01-04T04:09:33;24.95;;;10.15;;
22282;SDS011;11310;51.528;21.204;2023-01-04T04:12:02;24.40;;;10.05;;
22282;SDS011;11310;51.528;21.204;2023-01-04T04:14:31;24.23;;;10.38;;
22282;SDS011;11310;51.528;21.204;2023-01-04T04:16:59;28.45;;;10.88;;
22282;SDS011;11310;51.528;21.204;2023-01-04T04:19:29;27.83;;;11.45;;
22282;SDS011;11310;51.528;21.204;2023-01-04T04:21:57;27.27;;;12.00;;
22282;SDS011;11310;51.528;21.204;2023-01-04T04:24:26;30.10;;;13.93;;
22282;SDS011;11310;51.528;21.204;2023-01-04T04:26:56;34.53;;;13.32;;
22282;SDS011;11310;51.528;21.204;2023-01-04T04:29:25;31.02;;;11.73;;
22282;SDS011;11310;51.528;21.204;2023-01-04T04:31:53;37.88;;;14.02;;
22282;SDS011;11310;51.528;21.204;2023-01-04T04:34:22;44.55;;;14.63;;
22282;SDS011;11310;51.528;21.204;2023-01-04T04:36:50;34.42;;;12.90;;
22282;SDS011;11310;51.528;21.204;2023-01-04T04:39:19;31.67;;;12.43;;
22282;SDS011;11310;51.528;21.204;2023-01-04T04:41:48;26.90;;;11.45;;
22282;SDS011;11310;51.528;21.204;2023-01-04T04:44:17;34.22;;;12.27;;
22282;SDS011;11310;51.528;21.204;2023-01-04T04:49:16;31.88;;;11.82;;
22282;SDS011;11310;51.528;21.204;2023-01-04T04:51:45;29.20;;;11.00;;
22282;SDS011;11310;51.528;21.204;2023-01-04T04:54:15;27.98;;;10.82;;
22282;SDS011;11310;51.528;21.204;2023-01-04T04:56:45;28.45;;;10.45;;
22282;SDS011;11310;51.528;21.204;2023-01-04T04:59:14;31.90;;;11.60;;
22282;SDS011;11310;51.528;21.204;2023-01-04T05:01:44;29.75;;;10.32;;
22282;SDS011;11310;51.528;21.204;2023-01-04T05:04:14;33.85;;;11.02;;
22282;SDS011;11310;51.528;21.204;2023-01-04T05:06:46;27.52;;;11.50;;
22282;SDS011;11310;51.528;21.204;2023-01-04T05:09:16;23.37;;;9.97;;
22282;SDS011;11310;51.528;21.204;2023-01-04T05:11:45;26.58;;;9.98;;
22282;SDS011;11310;51.528;21.204;2023-01-04T05:14:33;22.30;;;8.40;;
22282;SDS011;11310;51.528;21.204;2023-01-04T05:17:01;20.13;;;9.13;;
22282;SDS011;11310;51.528;21.204;2023-01-04T05:19:30;19.92;;;8.85;;
22282;SDS011;11310;51.528;21.204;2023-01-04T05:21:58;20.98;;;9.20;;
22282;SDS011;11310;51.528;21.204;2023-01-04T05:24:27;22.98;;;9.30;;
22282;SDS011;11310;51.528;21.204;2023-01-04T05:26:56;20.75;;;9.90;;
22282;SDS011;11310;51.528;21.204;2023-01-04T05:29:24;20.65;;;8.88;;
22282;SDS011;11310;51.528;21.204;2023-01-04T05:32:12;20.67;;;8.98;;
22282;SDS011;11310;51.528;21.204;2023-01-04T05:34:40;19.70;;;9.10;;
22282;SDS011;11310;51.528;21.204;2023-01-04T05:37:09;18.23;;;9.00;;
22282;SDS011;11310;51.528;21.204;2023-01-04T05:39:38;19.48;;;8.45;;
22282;SDS011;11310;51.528;21.204;2023-01-04T05:42:06;18.25;;;8.82;;
22282;SDS011;11310;51.528;21.204;2023-01-04T05:44:54;17.15;;;8.00;;
22282;SDS011;11310;51.528;21.204;2023-01-04T05:47:25;20.65;;;8.80;;
22282;SDS011;11310;51.528;21.204;2023-01-04T05:49:54;17.40;;;8.25;;
22282;SDS011;11310;51.528;21.204;2023-01-04T05:52:23;19.38;;;9.63;;
22282;SDS011;11310;51.528;21.204;2023-01-04T05:54:52;21.42;;;9.30;;
22282;SDS011;11310;51.528;21.204;2023-01-04T05:57:20;21.63;;;9.05;;
22282;SDS011;11310;51.528;21.204;2023-01-04T05:59:49;18.55;;;9.15;;
22282;SDS011;11310;51.528;21.204;2023-01-04T06:02:19;20.55;;;8.00;;
22282;SDS011;11310;51.528;21.204;2023-01-04T06:04:51;20.88;;;9.18;;
22282;SDS011;11310;51.528;21.204;2023-01-04T06:07:25;20.40;;;8.77;;
22282;SDS011;11310;51.528;21.204;2023-01-04T06:09:55;18.15;;;8.70;;
22282;SDS011;11310;51.528;21.204;2023-01-04T06:12:24;21.42;;;9.95;;
22282;SDS011;11310;51.528;21.204;2023-01-04T06:14:52;20.17;;;9.50;;
22282;SDS011;11310;51.528;21.204;2023-01-04T06:17:21;19.55;;;9.13;;
22282;SDS011;11310;51.528;21.204;2023-01-04T06:19:49;20.25;;;9.48;;
22282;SDS011;11310;51.528;21.204;2023-01-04T06:22:19;23.13;;;10.07;;
22282;SDS011;11310;51.528;21.204;2023-01-04T06:24:48;24.77;;;10.30;;
22282;SDS011;11310;51.528;21.204;2023-01-04T06:27:17;29.08;;;9.82;;
22282;SDS011;11310;51.528;21.204;2023-01-04T06:29:45;20.85;;;9.10;;
22282;SDS011;11310;51.528;21.204;2023-01-04T06:32:14;20.17;;;9.45;;
22282;SDS011;11310;51.528;21.204;2023-01-04T06:34:43;19.98;;;9.27;;
22282;SDS011;11310;51.528;21.204;2023-01-04T06:37:13;22.83;;;10.82;;
22282;SDS011;11310;51.528;21.204;2023-01-04T06:39:42;21.15;;;9.20;;
22282;SDS011;11310;51.528;21.204;2023-01-04T06:42:11;21.55;;;9.23;;
22282;SDS011;11310;51.528;21.204;2023-01-04T06:44:53;24.80;;;11.15;;
22282;SDS011;11310;51.528;21.204;2023-01-04T06:47:22;21.50;;;9.95;;
22282;SDS011;11310;51.528;21.204;2023-01-04T06:49:51;18.33;;;9.10;;
22282;SDS011;11310;51.528;21.204;2023-01-04T06:52:22;21.02;;;8.85;;
22282;SDS011;11310;51.528;21.204;2023-01-04T06:54:50;18.98;;;8.55;;
22282;SDS011;11310;51.528;21.204;2023-01-04T06:57:19;21.88;;;9.57;;
22282;SDS011;11310;51.528;21.204;2023-01-04T06:59:48;22.35;;;9.77;;
22282;SDS011;11310;51.528;21.204;2023-01-04T07:02:18;21.05;;;9.00;;
22282;SDS011;11310;51.528;21.204;2023-01-04T07:04:47;20.67;;;9.60;;
22282;SDS011;11310;51.528;21.204;2023-01-04T07:07:16;20.17;;;9.38;;
22282;SDS011;11310;51.528;21.204;2023-01-04T07:09:46;25.42;;;10.93;;
22282;SDS011;11310;51.528;21.204;2023-01-04T07:12:15;18.98;;;9.25;;
22282;SDS011;11310;51.528;21.204;2023-01-04T07:14:44;20.70;;;10.18;;
22282;SDS011;11310;51.528;21.204;2023-01-04T07:17:12;23.85;;;10.93;;
22282;SDS011;11310;51.528;21.204;2023-01-04T07:19:41;24.75;;;11.13;;
22282;SDS011;11310;51.528;21.204;2023-01-04T07:22:10;20.90;;;10.52;;
22282;SDS011;11310;51.528;21.204;2023-01-04T07:24:39;25.42;;;12.18;;
22282;SDS011;11310;51.528;21.204;2023-01-04T07:27:10;26.33;;;13.80;;
22282;SDS011;11310;51.528;21.204;2023-01-04T07:29:39;23.95;;;11.75;;
22282;SDS011;11310;51.528;21.204;2023-01-04T07:32:10;25.92;;;12.10;;
22282;SDS011;11310;51.528;21.204;2023-01-04T07:34:39;29.40;;;11.57;;
22282;SDS011;11310;51.528;21.204;2023-01-04T07:37:09;21.00;;;10.10;;
22282;SDS011;11310;51.528;21.204;2023-01-04T07:39:40;24.88;;;11.30;;
22282;SDS011;11310;51.528;21.204;2023-01-04T07:42:11;23.88;;;10.77;;
22282;SDS011;11310;51.528;21.204;2023-01-04T07:44:39;22.00;;;10.90;;
22282;SDS011;11310;51.528;21.204;2023-01-04T07:47:08;24.23;;;11.32;;
22282;SDS011;11310;51.528;21.204;2023-01-04T07:49:37;27.45;;;11.48;;
22282;SDS011;11310;51.528;21.204;2023-01-04T07:52:06;31.33;;;12.70;;
22282;SDS011;11310;51.528;21.204;2023-01-04T07:54:34;30.52;;;12.82;;
22282;SDS011;11310;51.528;21.204;2023-01-04T07:57:03;27.33;;;13.23;;
22282;SDS011;11310;51.528;21.204;2023-01-04T07:59:33;29.98;;;13.18;;
22282;SDS011;11310;51.528;21.204;2023-01-04T08:02:02;21.77;;;11.88;;
22282;SDS011;11310;51.528;21.204;2023-01-04T08:04:31;26.23;;;11.45;;
22282;SDS011;11310;51.528;21.204;2023-01-04T08:07:01;26.35;;;11.75;;
22282;SDS011;11310;51.528;21.204;2023-01-04T08:09:29;28.60;;;12.40;;
22282;SDS011;11310;51.528;21.204;2023-01-04T08:11:58;27.63;;;12.43;;
22282;SDS011;11310;51.528;21.204;2023-01-04T08:14:27;31.15;;;12.77;;
22282;SDS011;11310;51.528;21.204;2023-01-04T08:16:57;27.23;;;12.73;;
22282;SDS011;11310;51.528;21.204;2023-01-04T08:19:26;23.70;;;11.82;;
22282;SDS011;11310;51.528;21.204;2023-01-04T08:21:55;28.85;;;12.27;;
22282;SDS011;11310;51.528;21.204;2023-01-04T08:24:23;24.08;;;11.40;;
22282;SDS011;11310;51.528;21.204;2023-01-04T08:26:53;28.73;;;12.15;;
22282;SDS011;11310;51.528;21.204;2023-01-04T08:29:22;23.48;;;11.50;;
22282;SDS011;11310;51.528;21.204;2023-01-04T08:31:59;32.63;;;11.48;;
22282;SDS011;11310;51.528;21.204;2023-01-04T08:34:28;26.38;;;11.88;;
22282;SDS011;11310;51.528;21.204;2023-01-04T08:36:58;25.60;;;11.65;;
22282;SDS011;11310;51.528;21.204;2023-01-04T08:39:26;24.20;;;11.23;;
22282;SDS011;11310;51.528;21.204;2023-01-04T08:41:55;23.40;;;11.73;;
22282;SDS011;11310;51.528;21.204;2023-01-04T08:44:40;21.10;;;10.63;;
22282;SDS011;11310;51.528;21.204;2023-01-04T08:47:11;24.27;;;11.27;;
22282;SDS011;11310;51.528;21.204;2023-01-04T08:49:40;25.55;;;10.98;;
22282;SDS011;11310;51.528;21.204;2023-01-04T08:52:08;26.85;;;12.48;;
22282;SDS011;11310;51.528;21.204;2023-01-04T08:54:39;31.00;;;12.85;;
22282;SDS011;11310;51.528;21.204;2023-01-04T08:57:07;27.95;;;13.43;;
22282;SDS011;11310;51.528;21.204;2023-01-04T08:59:36;35.92;;;13.13;;
22282;SDS011;11310;51.528;21.204;2023-01-04T09:02:11;29.73;;;12.50;;
22282;SDS011;11310;51.528;21.204;2023-01-04T09:04:48;31.30;;;12.63;;
22282;SDS011;11310;51.528;21.204;2023-01-04T09:07:17;26.13;;;11.77;;
22282;SDS011;11310;51.528;21.204;2023-01-04T09:09:46;29.27;;;13.13;;
22282;SDS011;11310;51.528;21.204;2023-01-04T09:12:14;27.08;;;12.48;;
22282;SDS011;11310;51.528;21.204;2023-01-04T09:14:43;28.92;;;12.85;;
22282;SDS011;11310;51.528;21.204;2023-01-04T09:17:14;28.83;;;12.68;;
22282;SDS011;11310;51.528;21.204;2023-01-04T09:19:42;28.63;;;13.90;;
22282;SDS011;11310;51.528;21.204;2023-01-04T09:22:11;26.08;;;12.55;;
22282;SDS011;11310;51.528;21.204;2023-01-04T09:24:40;27.05;;;11.85;;
22282;SDS011;11310;51.528;21.204;2023-01-04T09:27:09;24.88;;;12.70;;
22282;SDS011;11310;51.528;21.204;2023-01-04T09:29:38;28.90;;;12.95;;
22282;SDS011;11310;51.528;21.204;2023-01-04T09:32:07;25.98;;;11.93;;
22282;SDS011;11310;51.528;21.204;2023-01-04T09:34:43;25.38;;;12.75;;
22282;SDS011;11310;51.528;21.204;2023-01-04T09:37:12;27.08;;;12.00;;
22282;SDS011;11310;51.528;21.204;2023-01-04T09:39:41;29.27;;;12.10;;
22282;SDS011;11310;51.528;21.204;2023-01-04T09:42:14;22.05;;;11.32;;
22282;SDS011;11310;51.528;21.204;2023-01-04T09:44:49;22.58;;;10.80;;
22282;SDS011;11310;51.528;21.204;2023-01-04T09:47:41;24.25;;;10.75;;
22282;SDS011;11310;51.528;21.204;2023-01-04T09:50:17;21.85;;;10.40;;
22282;SDS011;11310;51.528;21.204;2023-01-04T09:52:50;31.25;;;11.73;;
22282;SDS011;11310;51.528;21.204;2023-01-04T09:55:29;26.60;;;10.63;;
22282;SDS011;11310;51.528;21.204;2023-01-04T09:58:12;22.90;;;10.88;;
22282;SDS011;11310;51.528;21.204;2023-01-04T10:00:48;25.10;;;9.93;;
22282;SDS011;11310;51.528;21.204;2023-01-04T10:03:21;21.02;;;10.15;;
22282;SDS011;11310;51.528;21.204;2023-01-04T10:05:54;23.17;;;10.25;;
22282;SDS011;11310;51.528;21.204;2023-01-04T10:08:23;19.00;;;9.47;;
22282;SDS011;11310;51.528;21.204;2023-01-04T10:10:55;19.50;;;9.20;;
22282;SDS011;11310;51.528;21.204;2023-01-04T10:13:40;20.55;;;9.00;;
22282;SDS011;11310;51.528;21.204;2023-01-04T10:16:29;20.00;;;9.50;;
22282;SDS011;11310;51.528;21.204;2023-01-04T10:19:35;18.95;;;9.82;;
22282;SDS011;11310;51.528;21.204;2023-01-04T10:22:35;14.40;;;6.38;;
22282;SDS011;11310;51.528;21.204;2023-01-04T10:25:19;25.77;;;9.38;;
22282;SDS011;11310;51.528;21.204;2023-01-04T10:27:55;20.92;;;9.63;;
22282;SDS011;11310;51.528;21.204;2023-01-04T10:30:35;22.75;;;9.88;;
22282;SDS011;11310;51.528;21.204;2023-01-04T10:33:10;18.58;;;8.85;;
22282;SDS011;11310;51.528;21.204;2023-01-04T10:38:13;22.50;;;9.27;;
22282;SDS011;11310;51.528;21.204;2023-01-04T10:40:45;21.70;;;9.25;;
22282;SDS011;11310;51.528;21.204;2023-01-04T10:43:19;22.35;;;10.43;;
22282;SDS011;11310;51.528;21.204;2023-01-04T10:46:19;17.90;;;8.97;;
22282;SDS011;11310;51.528;21.204;2023-01-04T10:48:53;18.08;;;9.02;;
22282;SDS011;11310;51.528;21.204;2023-01-04T10:51:27;21.65;;;9.30;;
22282;SDS011;11310;51.528;21.204;2023-01-04T10:54:05;16.60;;;8.02;;
22282;SDS011;11310;51.528;21.204;2023-01-04T10:56:45;19.00;;;8.70;;
22282;SDS011;11310;51.528;21.204;2023-01-04T10:59:19;15.63;;;8.18;;
22282;SDS011;11310;51.528;21.204;2023-01-04T11:01:54;16.38;;;7.70;;
22282;SDS011;11310;51.528;21.204;2023-01-04T11:04:27;17.10;;;7.75;;
22282;SDS011;11310;51.528;21.204;2023-01-04T11:07:01;20.00;;;8.50;;
22282;SDS011;11310;51.528;21.204;2023-01-04T11:09:39;18.60;;;8.48;;
22282;SDS011;11310;51.528;21.204;2023-01-04T11:12:14;20.20;;;8.00;;
22282;SDS011;11310;51.528;21.204;2023-01-04T11:14:47;17.60;;;9.30;;
22282;SDS011;11310;51.528;21.204;2023-01-04T11:17:15;18.80;;;10.32;;
22282;SDS011;11310;51.528;21.204;2023-01-04T11:19:45;22.88;;;10.05;;
22282;SDS011;11310;51.528;21.204;2023-01-04T11:22:15;18.65;;;9.40;;
22282;SDS011;11310;51.528;21.204;2023-01-04T11:24:51;17.60;;;8.77;;
22282;SDS011;11310;51.528;21.204;2023-01-04T11:27:43;14.93;;;7.10;;
22282;SDS011;11310;51.528;21.204;2023-01-04T11:30:15;17.55;;;8.20;;
22282;SDS011;11310;51.528;21.204;2023-01-04T11:32:50;16.85;;;7.65;;
22282;SDS011;11310;51.528;21.204;2023-01-04T11:35:35;20.88;;;8.23;;
22282;SDS011;11310;51.528;21.204;2023-01-04T11:38:10;17.30;;;7.53;;
22282;SDS011;11310;51.528;21.204;2023-01-04T11:40:42;14.75;;;7.25;;
22282;SDS011;11310;51.528;21.204;2023-01-04T11:43:23;14.90;;;6.63;;
22282;SDS011;11310;51.528;21.204;2023-01-04T11:45:55;15.07;;;6.63;;
22282;SDS011;11310;51.528;21.204;2023-01-04T11:48:35;17.67;;;7.45;;
22282;SDS011;11310;51.528;21.204;2023-01-04T11:51:14;17.10;;;6.57;;
22282;SDS011;11310;51.528;21.204;2023-01-04T11:53:45;14.82;;;7.30;;
22282;SDS011;11310;51.528;21.204;2023-01-04T11:56:26;18.45;;;6.68;;
22282;SDS011;11310;51.528;21.204;2023-01-04T12:01:47;15.90;;;7.10;;
22282;SDS011;11310;51.528;21.204;2023-01-04T12:04:20;20.38;;;7.90;;
22282;SDS011;11310;51.528;21.204;2023-01-04T12:06:51;18.55;;;7.93;;
22282;SDS011;11310;51.528;21.204;2023-01-04T12:11:52;17.42;;;8.55;;
22282;SDS011;11310;51.528;21.204;2023-01-04T12:14:23;19.73;;;10.02;;
22282;SDS011;11310;51.528;21.204;2023-01-04T12:16:55;20.35;;;11.13;;
22282;SDS011;11310;51.528;21.204;2023-01-04T12:19:28;21.25;;;11.27;;
22282;SDS011;11310;51.528;21.204;2023-01-04T12:21:59;18.98;;;10.63;;
22282;SDS011;11310;51.528;21.204;2023-01-04T12:24:30;17.67;;;9.15;;
22282;SDS011;11310;51.528;21.204;2023-01-04T12:27:02;22.92;;;8.77;;
22282;SDS011;11310;51.528;21.204;2023-01-04T12:29:42;18.05;;;8.40;;
22282;SDS011;11310;51.528;21.204;2023-01-04T12:47:46;20.08;;;7.43;;
22282;SDS011;11310;51.528;21.204;2023-01-04T12:54:07;13.43;;;6.03;;
22282;SDS011;11310;51.528;21.204;2023-01-04T12:59:41;13.85;;;5.75;;
22282;SDS011;11310;51.528;21.204;2023-01-04T13:02:24;13.45;;;6.50;;
22282;SDS011;11310;51.528;21.204;2023-01-04T13:04:55;10.63;;;5.63;;
22282;SDS011;11310;51.528;21.204;2023-01-04T13:07:46;12.65;;;5.60;;
22282;SDS011;11310;51.528;21.204;2023-01-04T13:10:18;12.90;;;5.70;;
22282;SDS011;11310;51.528;21.204;2023-01-04T13:13:09;10.68;;;5.18;;
22282;SDS011;11310;51.528;21.204;2023-01-04T13:15:53;13.68;;;5.80;;
22282;SDS011;11310;51.528;21.204;2023-01-04T13:18:34;13.02;;;5.68;;
22282;SDS011;11310;51.528;21.204;2023-01-04T13:21:09;11.73;;;5.97;;
22282;SDS011;11310;51.528;21.204;2023-01-04T13:23:44;12.73;;;6.28;;
22282;SDS011;11310;51.528;21.204;2023-01-04T13:26:27;14.43;;;6.75;;
22282;SDS011;11310;51.528;21.204;2023-01-04T13:29:05;11.65;;;5.70;;
22282;SDS011;11310;51.528;21.204;2023-01-04T13:31:53;11.45;;;5.88;;
22282;SDS011;11310;51.528;21.204;2023-01-04T13:34:25;18.00;;;6.90;;
22282;SDS011;11310;51.528;21.204;2023-01-04T13:37:01;16.58;;;6.43;;
22282;SDS011;11310;51.528;21.204;2023-01-04T13:39:41;14.00;;;6.75;;
22282;SDS011;11310;51.528;21.204;2023-01-04T13:42:13;15.52;;;7.47;;
22282;SDS011;11310;51.528;21.204;2023-01-04T13:45:11;14.70;;;6.85;;
22282;SDS011;11310;51.528;21.204;2023-01-04T13:47:54;13.88;;;6.68;;
22282;SDS011;11310;51.528;21.204;2023-01-04T13:50:28;16.92;;;7.72;;
22282;SDS011;11310;51.528;21.204;2023-01-04T13:53:01;16.23;;;7.10;;
22282;SDS011;11310;51.528;21.204;2023-01-04T13:55:34;18.77;;;7.93;;
22282;SDS011;11310;51.528;21.204;2023-01-04T13:58:04;16.60;;;7.65;;
22282;SDS011;11310;51.528;21.204;2023-01-04T14:00:35;16.00;;;7.70;;
22282;SDS011;11310;51.528;21.204;2023-01-04T14:03:13;19.60;;;7.32;;
22282;SDS011;11310;51.528;21.204;2023-01-04T14:05:52;17.85;;;7.97;;
22282;SDS011;11310;51.528;21.204;2023-01-04T14:08:30;20.45;;;8.70;;
22282;SDS011;11310;51.528;21.204;2023-01-04T14:11:02;18.63;;;9.18;;
22282;SDS011;11310;51.528;21.204;2023-01-04T14:14:11;20.95;;;9.23;;
22282;SDS011;11310;51.528;21.204;2023-01-04T14:16:46;24.75;;;9.27;;
22282;SDS011;11310;51.528;21.204;2023-01-04T14:22:33;21.30;;;9.27;;
22282;SDS011;11310;51.528;21.204;2023-01-04T14:28:33;24.48;;;10.18;;
22282;SDS011;11310;51.528;21.204;2023-01-04T14:31:21;25.25;;;9.23;;
22282;SDS011;11310;51.528;21.204;2023-01-04T14:33:55;20.33;;;9.25;;
22282;SDS011;11310;51.528;21.204;2023-01-04T14:36:25;22.88;;;8.98;;
22282;SDS011;11310;51.528;21.204;2023-01-04T14:39:07;18.13;;;8.27;;
22282;SDS011;11310;51.528;21.204;2023-01-04T14:41:52;17.45;;;8.00;;
22282;SDS011;11310;51.528;21.204;2023-01-04T14:44:23;16.23;;;8.18;;
22282;SDS011;11310;51.528;21.204;2023-01-04T14:46:56;17.77;;;8.10;;
22282;SDS011;11310;51.528;21.204;2023-01-04T14:49:26;18.25;;;8.65;;
22282;SDS011;11310;51.528;21.204;2023-01-04T14:51:57;19.60;;;7.85;;
22282;SDS011;11310;51.528;21.204;2023-01-04T14:54:27;19.37;;;7.80;;
22282;SDS011;11310;51.528;21.204;2023-01-04T14:56:57;18.95;;;8.57;;
22282;SDS011;11310;51.528;21.204;2023-01-04T14:59:27;27.25;;;11.63;;
22282;SDS011;11310;51.528;21.204;2023-01-04T15:01:56;21.27;;;10.15;;
22282;SDS011;11310;51.528;21.204;2023-01-04T15:04:25;36.17;;;14.35;;
22282;SDS011;11310;51.528;21.204;2023-01-04T15:06:54;31.13;;;14.07;;
22282;SDS011;11310;51.528;21.204;2023-01-04T15:09:26;26.50;;;12.40;;
22282;SDS011;11310;51.528;21.204;2023-01-04T15:11:55;24.80;;;10.98;;
22282;SDS011;11310;51.528;21.204;2023-01-04T15:14:24;26.67;;;10.40;;
22282;SDS011;11310;51.528;21.204;2023-01-04T15:16:52;25.05;;;10.65;;
22282;SDS011;11310;51.528;21.204;2023-01-04T15:19:21;24.75;;;9.93;;
22282;SDS011;11310;51.528;21.204;2023-01-04T15:21:50;23.50;;;10.45;;
22282;SDS011;11310;51.528;21.204;2023-01-04T15:24:19;24.10;;;10.48;;
22282;SDS011;11310;51.528;21.204;2023-01-04T15:26:49;32.67;;;12.23;;
22282;SDS011;11310;51.528;21.204;2023-01-04T15:29:18;34.83;;;13.50;;
22282;SDS011;11310;51.528;21.204;2023-01-04T15:31:47;25.33;;;11.82;;
22282;SDS011;11310;51.528;21.204;2023-01-04T15:34:15;27.38;;;11.00;;
22282;SDS011;11310;51.528;21.204;2023-01-04T15:36:44;23.50;;;11.00;;
22282;SDS011;11310;51.528;21.204;2023-01-04T15:39:13;25.55;;;10.50;;
22282;SDS011;11310;51.528;21.204;2023-01-04T15:41:42;22.25;;;9.57;;